Time;durP1;ratioP1;P1;durP2;ratioP2;P2;SDS_P1;SDS_P2;PMS_P1;PMS_P2;Temp;Humidity;BMP_temperature;BMP_pressure;BME280_temperature;BME280_humidity;BME280_pressure;Samples;Min_cycle;Max_cycle;Signal;HPM_P1;HPM_P2
2022/12/17 15:00:01;;;;;;;13.47;10.60;;;;;;;5.79;89.26;99823.61;1780095;79;22599;-71
2022/12/17 15:02:30;;;;;;;13.62;11.15;;;;;;;5.82;87.76;99823.95;1747919;79;21585;-71
2022/12/17 15:05:00;;;;;;;13.62;11.12;;;;;;;5.78;86.67;99815.39;1774816;78;21221;-72
2022/12/17 15:07:29;;;;;;;20.65;14.43;;;;;;;5.82;86.12;99813.36;1774337;79;21470;-71
2022/12/17 15:09:56;;;;;;;20.70;15.93;;;;;;;5.92;85.67;99822.47;1790376;79;21470;-70
2022/12/17 15:12:23;;;;;;;24.72;17.50;;;;;;;5.96;84.91;99842.99;1765712;79;21577;-72
2022/12/17 15:14:50;;;;;;;35.85;20.77;;;;;;;5.95;84.14;99839.25;1762301;80;21501;-71
2022/12/17 15:17:16;;;;;;;30.80;21.40;;;;;;;5.93;83.54;99838.70;1785753;80;21745;-71
2022/12/17 15:19:43;;;;;;;40.23;24.30;;;;;;;5.87;82.97;99842.56;1786939;80;21550;-70
2022/12/17 15:22:15;;;;;;;33.10;24.23;;;;;;;5.85;82.76;99855.24;1782890;79;21593;-71
2022/12/17 15:24:45;;;;;;;32.17;23.70;;;;;;;5.88;82.58;99854.76;1787270;80;20868;-71
2022/12/17 15:27:15;;;;;;;26.23;18.87;;;;;;;5.88;82.14;99848.13;1782488;80;20864;-71
2022/12/17 15:29:42;;;;;;;33.55;21.23;;;;;;;5.86;81.80;99853.42;1755668;81;21098;-72
2022/12/17 15:32:22;;;;;;;37.33;23.90;;;;;;;5.80;81.42;99863.13;1787390;80;21459;-69
2022/12/17 15:34:49;;;;;;;23.55;17.10;;;;;;;5.13;83.33;99871.84;1782869;80;20990;-69
2022/12/17 15:37:17;;;;;;;22.55;16.15;;;;;;;5.53;82.51;99882.86;1788048;80;21506;-72
2022/12/17 15:39:45;;;;;;;20.25;16.57;;;;;;;5.65;81.54;99894.16;1784024;79;21051;-72
2022/12/17 15:44:56;;;;;;;22.82;16.80;;;;;;;5.62;80.87;99885.89;1752075;82;21017;-71
2022/12/17 15:47:22;;;;;;;22.35;16.57;;;;;;;5.61;80.61;99890.91;1757247;81;20988;-70
2022/12/17 15:49:49;;;;;;;22.13;16.70;;;;;;;5.59;80.35;99891.66;1767104;80;21058;-70
2022/12/17 15:52:15;;;;;;;30.37;21.33;;;;;;;5.60;80.25;99886.67;1721944;80;21510;-72
2022/12/17 15:54:42;;;;;;;27.93;20.52;;;;;;;5.58;80.15;99882.13;1779429;80;22347;-71
2022/12/17 15:57:08;;;;;;;25.92;19.07;;;;;;;5.29;80.72;99874.22;1817873;78;21439;-72
2022/12/17 15:59:35;;;;;;;25.40;18.35;;;;;;;5.56;80.57;99870.45;1829031;78;21046;-71
2022/12/17 16:02:01;;;;;;;25.92;18.25;;;;;;;5.69;80.25;99866.66;1819632;78;21090;-71
2022/12/17 16:04:28;;;;;;;23.50;17.75;;;;;;;5.63;80.42;99874.27;1775754;78;21089;-71
2022/12/17 16:06:55;;;;;;;20.95;16.67;;;;;;;5.64;80.34;99871.89;1379922;80;10017234;-72
2022/12/17 16:09:24;;;;;;;21.23;16.32;;;;;;;5.57;80.10;99876.02;1776081;80;21379;-71
2022/12/17 16:11:54;;;;;;;23.67;18.60;;;;;;;5.56;80.03;99884.20;1736202;80;21653;-71
2022/12/17 16:14:23;;;;;;;23.73;19.23;;;;;;;5.52;79.93;99889.17;1779230;78;21054;-72
2022/12/17 16:16:49;;;;;;;22.35;18.40;;;;;;;5.52;79.91;99891.82;1789317;78;21050;-71
2022/12/17 16:19:16;;;;;;;22.02;16.62;;;;;;;5.54;79.85;99901.67;1783214;78;21199;-70
2022/12/17 16:21:42;;;;;;;21.75;16.35;;;;;;;5.61;79.35;99908.14;1743716;80;21565;-72
2022/12/17 16:24:09;;;;;;;26.77;18.05;;;;;;;5.57;79.14;99913.11;1775590;78;21764;-72
2022/12/17 16:26:37;;;;;;;23.10;17.37;;;;;;;5.51;78.96;99902.67;1785743;79;21103;-72
2022/12/17 16:29:05;;;;;;;23.45;17.57;;;;;;;5.51;78.99;99903.47;1785599;78;21130;-72
2022/12/17 16:31:33;;;;;;;27.58;19.45;;;;;;;5.52;78.90;99909.04;1788643;78;21139;-72
2022/12/17 16:34:00;;;;;;;28.87;20.48;;;;;;;5.45;79.09;99912.89;1743294;80;21072;-73
2022/12/17 16:36:28;;;;;;;30.65;22.60;;;;;;;5.44;79.27;99917.39;1781663;78;21054;-72
2022/12/17 16:38:54;;;;;;;25.32;19.07;;;;;;;5.42;79.25;99911.52;1776612;78;21146;-71
2022/12/17 16:41:21;;;;;;;25.17;18.85;;;;;;;5.39;79.23;99906.17;1781717;78;21113;-72
2022/12/17 16:43:48;;;;;;;28.30;21.15;;;;;;;5.43;79.23;99900.39;1782154;78;21765;-70
2022/12/17 16:46:29;;;;;;;31.48;23.38;;;;;;;5.43;79.19;99898.58;1776312;79;21090;-71
2022/12/17 16:48:57;;;;;;;29.57;19.70;;;;;;;5.44;79.17;99917.39;1788762;78;21066;-69
2022/12/17 16:51:25;;;;;;;27.55;19.95;;;;;;;5.55;78.58;99906.44;1776576;79;21054;-71
2022/12/17 16:53:52;;;;;;;32.38;22.98;;;;;;;5.55;78.39;99909.09;1776626;79;21141;-71
2022/12/17 16:56:22;;;;;;;28.98;21.65;;;;;;;5.50;78.26;99922.27;1776525;79;22238;-69
2022/12/17 16:58:49;;;;;;;26.48;18.73;;;;;;;5.39;78.49;99918.61;1789113;79;21550;-70
2022/12/17 17:01:25;;;;;;;22.02;17.42;;;;;;;5.31;78.48;99923.78;1776135;79;21588;-70
2022/12/17 17:03:51;;;;;;;20.62;16.17;;;;;;;5.32;78.54;99932.00;1776069;78;21361;-71
2022/12/17 17:06:19;;;;;;;21.48;15.68;;;;;;;5.31;78.46;99938.34;1741397;80;21337;-69
2022/12/17 17:08:46;;;;;;;21.77;14.78;;;;;;;5.27;78.33;99947.02;1742749;80;21149;-69
2022/12/17 17:11:16;;;;;;;17.27;12.30;;;;;;;5.26;78.23;99940.89;1735939;80;22205;-71
2022/12/17 17:13:44;;;;;;;12.50;8.70;;;;;;;5.23;78.11;99958.59;1737612;81;21031;-70
2022/12/17 17:16:12;;;;;;;13.78;10.63;;;;;;;5.19;77.92;99957.44;1732348;80;21557;-70
2022/12/17 17:18:44;;;;;;;12.37;9.00;;;;;;;5.15;77.84;99957.63;1739501;80;21097;-74
2022/12/17 17:21:44;;;;;;;10.98;8.30;;;;;;;5.01;77.96;99961.60;1749040;80;21115;-71
2022/12/17 17:24:17;;;;;;;11.60;8.93;;;;;;;4.98;78.17;99965.52;1743912;80;21103;-70
2022/12/17 17:26:43;;;;;;;10.73;7.60;;;;;;;4.96;78.20;99968.10;1740842;81;21055;-70
2022/12/17 17:29:09;;;;;;;10.38;7.12;;;;;;;4.95;78.23;99959.36;1748153;81;21082;-71
2022/12/17 17:31:39;;;;;;;11.20;7.80;;;;;;;4.96;78.17;99964.13;1740140;81;21134;-72
2022/12/17 17:34:10;;;;;;;11.03;7.78;;;;;;;5.00;78.17;99958.16;1743730;81;21235;-72
2022/12/17 17:36:58;;;;;;;9.78;6.83;;;;;;;5.02;78.03;99961.88;1751889;80;21070;-73
2022/12/17 17:39:26;;;;;;;8.83;6.33;;;;;;;5.00;77.87;99961.30;1653020;84;21497;-73
2022/12/17 17:41:52;;;;;;;9.58;6.28;;;;;;;5.00;77.81;99962.62;1699817;84;21484;-71
2022/12/17 17:44:19;;;;;;;7.85;6.10;;;;;;;5.01;77.75;99970.86;1700333;84;21034;-72
2022/12/17 17:46:45;;;;;;;8.60;5.75;;;;;;;4.99;77.69;99980.88;1700846;84;21115;-71
2022/12/17 17:49:12;;;;;;;8.45;5.92;;;;;;;4.98;77.54;99979.27;1678444;84;21017;-71
2022/12/17 17:51:41;;;;;;;8.63;5.30;;;;;;;4.94;77.42;99982.38;1673664;85;21053;-72
2022/12/17 17:54:07;;;;;;;7.28;5.25;;;;;;;4.90;77.33;99997.62;1673300;85;21018;-71
2022/12/17 17:56:37;;;;;;;7.22;5.30;;;;;;;4.91;77.32;100001.38;1646624;85;21145;-71
2022/12/17 17:59:19;;;;;;;6.53;4.72;;;;;;;4.85;77.21;100012.88;1673428;85;21213;-70
2022/12/17 18:01:48;;;;;;;6.92;5.30;;;;;;;4.81;77.18;100021.53;1673740;85;20970;-71
2022/12/17 18:04:18;;;;;;;6.12;4.12;;;;;;;4.78;77.26;100024.11;1673529;85;20986;-73
2022/12/17 18:06:47;;;;;;;6.87;4.75;;;;;;;4.79;77.27;100031.00;1673721;85;20990;-72
2022/12/17 18:09:14;;;;;;;7.08;5.05;;;;;;;4.81;77.28;100051.44;1678861;84;20998;-72
2022/12/17 18:11:42;;;;;;;6.60;4.08;;;;;;;4.78;77.24;100059.83;1697076;81;21953;-74
2022/12/17 18:14:11;;;;;;;5.75;3.70;;;;;;;4.75;77.24;100044.94;1705157;82;21006;-71
2022/12/17 18:16:44;;;;;;;5.20;3.60;;;;;;;4.71;77.15;100069.73;1686771;82;21088;-72
2022/12/17 18:19:17;;;;;;;6.05;3.75;;;;;;;4.88;76.73;100067.99;1696497;82;21014;-71
2022/12/17 18:21:45;;;;;;;5.58;4.05;;;;;;;4.87;76.44;100070.36;1694854;81;21469;-72
2022/12/17 18:24:18;;;;;;;5.60;3.42;;;;;;;4.88;76.30;100075.93;1699730;81;21551;-71
2022/12/17 18:26:46;;;;;;;5.75;3.62;;;;;;;4.90;76.23;100069.06;1692057;81;21127;-71
2022/12/17 18:29:19;;;;;;;5.62;3.55;;;;;;;4.91;76.11;100073.34;1702270;83;21022;-71
2022/12/17 18:31:47;;;;;;;4.30;3.02;;;;;;;4.92;76.03;100083.69;1702100;82;21014;-72
2022/12/17 18:34:15;;;;;;;5.50;3.23;;;;;;;4.96;75.92;100093.29;1453832;83;10000409;-73
2022/12/17 18:36:42;;;;;;;5.90;3.23;;;;;;;4.96;75.75;100103.88;1580585;82;9999825;-73
2022/12/17 18:39:15;;;;;;;4.60;2.93;;;;;;;4.98;75.69;100106.31;1693124;84;20997;-72
2022/12/17 18:44:26;;;;;;;6.15;3.62;;;;;;;4.99;75.45;100125.91;1691695;82;21638;-72
2022/12/17 18:46:53;;;;;;;8.95;4.72;;;;;;;4.91;75.10;100134.22;1694460;82;21103;-72
2022/12/17 18:49:21;;;;;;;7.33;4.05;;;;;;;4.83;75.08;100134.54;1691813;82;21072;-71
2022/12/17 18:51:49;;;;;;;6.20;4.00;;;;;;;4.77;75.07;100149.51;1686168;83;21708;-75
2022/12/17 18:54:19;;;;;;;5.42;3.05;;;;;;;4.79;75.16;100145.30;1687375;83;21033;-73
2022/12/17 18:56:46;;;;;;;7.12;3.65;;;;;;;4.79;75.14;100143.97;1698639;84;21014;-71
2022/12/17 18:59:20;;;;;;;6.05;3.50;;;;;;;4.80;75.09;100152.99;1681932;84;21028;-73
2022/12/17 19:01:47;;;;;;;7.70;3.87;;;;;;;4.79;75.02;100152.72;1692930;82;21093;-72
2022/12/17 19:04:16;;;;;;;7.90;3.80;;;;;;;4.74;74.81;100161.04;1685297;82;22148;-71
2022/12/17 19:06:43;;;;;;;6.30;3.60;;;;;;;4.72;74.77;100152.02;1689820;84;21127;-74
2022/12/17 19:09:25;;;;;;;4.92;2.55;;;;;;;4.72;74.76;100166.57;1691201;82;21049;-72
2022/12/17 19:11:52;;;;;;;7.28;3.75;;;;;;;4.68;74.71;100179.45;1703752;82;21119;-72
2022/12/17 19:14:21;;;;;;;5.22;3.10;;;;;;;4.69;74.61;100174.96;1702397;82;21049;-74
2022/12/17 19:16:49;;;;;;;4.37;2.52;;;;;;;4.72;74.47;100182.45;1699280;82;22094;-74
2022/12/17 19:19:16;;;;;;;3.08;2.00;;;;;;;4.67;74.31;100183.14;1690614;82;21010;-75
2022/12/17 19:21:43;;;;;;;3.70;2.10;;;;;;;4.70;74.29;100189.30;1678295;84;21095;-74
2022/12/17 19:24:14;;;;;;;4.42;2.30;;;;;;;4.66;74.10;100191.28;1691494;82;21671;-74
2022/12/17 19:26:40;;;;;;;3.22;1.82;;;;;;;4.66;73.92;100189.96;1686097;84;21074;-75
2022/12/17 19:29:11;;;;;;;3.40;1.75;;;;;;;4.62;73.62;100196.75;1693291;82;21050;-74
2022/12/17 19:31:37;;;;;;;3.77;2.12;;;;;;;4.67;73.57;100215.38;1698018;84;21018;-72
2022/12/17 19:34:06;;;;;;;3.83;2.05;;;;;;;4.70;73.47;100206.50;1695910;82;22283;-75
2022/12/17 19:36:35;;;;;;;3.20;2.00;;;;;;;4.73;73.29;100221.09;1694159;82;21039;-73
2022/12/17 19:39:04;;;;;;;3.60;2.05;;;;;;;4.71;73.12;100245.66;1691106;82;21165;-71
2022/12/17 19:41:31;;;;;;;4.05;2.22;;;;;;;4.73;72.99;100247.55;1699776;82;21088;-73
2022/12/17 19:44:00;;;;;;;4.05;1.82;;;;;;;4.68;72.86;100248.75;1667223;84;21577;-72
2022/12/17 19:46:28;;;;;;;2.83;1.57;;;;;;;4.67;72.79;100259.86;1697249;84;21045;-71
2022/12/17 19:48:55;;;;;;;3.50;1.80;;;;;;;4.67;72.63;100258.53;1666215;82;21074;-72
2022/12/17 19:51:23;;;;;;;3.17;1.95;;;;;;;4.65;72.49;100255.30;1697479;82;21120;-71
2022/12/17 19:53:50;;;;;;;3.35;1.65;;;;;;;4.65;72.43;100266.39;1689732;82;21308;-71
2022/12/17 19:56:22;;;;;;;2.90;1.60;;;;;;;4.64;72.28;100266.91;1685355;84;21116;-72
2022/12/17 19:58:52;;;;;;;2.72;1.47;;;;;;;4.63;72.19;100281.67;1670572;82;21279;-73
2022/12/17 20:01:25;;;;;;;2.70;1.50;;;;;;;4.66;72.12;100285.20;1692376;84;21085;-73
2022/12/17 20:03:52;;;;;;;2.83;1.65;;;;;;;4.69;71.98;100288.72;1683943;83;21132;-74
2022/12/17 20:06:22;;;;;;;3.72;1.85;;;;;;;4.70;71.87;100291.16;1685750;84;21207;-73
2022/12/17 20:08:49;;;;;;;4.55;1.70;;;;;;;4.70;71.82;100287.19;1685728;83;21065;-73
2022/12/17 20:11:33;;;;;;;3.70;1.87;;;;;;;4.72;71.82;100294.89;1697438;82;21123;-72
2022/12/17 20:14:13;;;;;;;3.17;1.50;;;;;;;4.66;71.65;100311.13;1671039;84;21120;-75
2022/12/17 20:16:50;;;;;;;2.77;1.50;;;;;;;4.57;71.53;100324.37;1692346;82;21129;-73
2022/12/17 20:19:30;;;;;;;2.75;1.42;;;;;;;4.55;71.57;100346.80;1687347;83;21043;-74
2022/12/17 20:22:00;;;;;;;2.83;1.45;;;;;;;4.53;71.78;100355.47;1703758;82;21020;-72
2022/12/17 20:24:27;;;;;;;2.77;1.32;;;;;;;4.48;71.75;100361.95;1696213;84;21099;-72
2022/12/17 20:26:54;;;;;;;2.50;1.47;;;;;;;4.42;71.73;100371.05;1684222;82;21069;-73
2022/12/17 20:29:22;;;;;;;2.92;1.60;;;;;;;4.44;71.76;100380.90;1688634;82;21306;-74
2022/12/17 20:31:50;;;;;;;2.95;1.80;;;;;;;4.40;71.72;100369.13;1692603;82;21620;-73
2022/12/17 20:34:18;;;;;;;4.17;2.00;;;;;;;4.47;71.78;100371.69;1662327;85;21080;-73
2022/12/17 20:36:47;;;;;;;3.98;1.60;;;;;;;4.52;71.73;100373.17;1699877;82;21129;-73
2022/12/17 20:39:14;;;;;;;3.10;1.60;;;;;;;4.49;71.57;100382.07;1693780;82;21163;-74
2022/12/17 20:41:40;;;;;;;2.50;1.45;;;;;;;4.45;71.48;100385.16;1697403;84;21057;-72
2022/12/17 20:44:11;;;;;;;2.37;1.35;;;;;;;4.44;71.51;100394.61;1658306;85;21670;-74
2022/12/17 20:46:39;;;;;;;2.15;1.32;;;;;;;4.41;71.53;100390.59;1676375;85;21050;-76
2022/12/17 20:49:07;;;;;;;2.40;1.52;;;;;;;4.37;71.51;100390.72;1694460;82;21160;-77
2022/12/17 20:51:36;;;;;;;2.75;1.50;;;;;;;4.37;71.59;100396.53;1661702;85;21010;-74
2022/12/17 20:54:03;;;;;;;4.03;1.90;;;;;;;4.37;71.62;100399.17;1689869;84;21105;-73
2022/12/17 20:56:32;;;;;;;2.95;1.65;;;;;;;4.37;71.61;100401.30;1694785;84;21089;-77
2022/12/17 20:59:02;;;;;;;3.47;1.70;;;;;;;4.37;71.55;100401.81;1650869;85;21235;-75
2022/12/17 21:01:31;;;;;;;2.83;1.60;;;;;;;4.39;71.47;100403.22;1700878;82;21156;-74
2022/12/17 21:03:58;;;;;;;2.87;1.60;;;;;;;4.39;71.31;100407.70;1665328;84;20994;-76
2022/12/17 21:06:36;;;;;;;3.30;2.00;;;;;;;4.37;71.33;100406.58;1696011;82;21179;-73
2022/12/17 21:09:04;;;;;;;3.50;2.02;;;;;;;4.29;71.33;100408.20;1679336;84;21556;-73
2022/12/17 21:11:32;;;;;;;3.60;2.05;;;;;;;4.35;71.29;100417.91;1686204;82;21038;-75
2022/12/17 21:14:10;;;;;;;3.33;2.00;;;;;;;4.32;71.31;100430.25;1658708;84;21194;-75
2022/12/17 21:16:37;;;;;;;3.70;2.37;;;;;;;4.26;71.36;100427.66;1680013;84;21061;-73
2022/12/17 21:19:04;;;;;;;3.35;2.00;;;;;;;4.23;71.40;100442.93;1679101;83;21050;-74
2022/12/17 21:21:33;;;;;;;3.65;2.15;;;;;;;4.25;71.40;100436.64;1695636;82;21234;-75
2022/12/17 21:24:00;;;;;;;3.60;2.22;;;;;;;4.27;71.37;100441.17;1679683;82;21057;-74
2022/12/17 21:26:29;;;;;;;3.77;2.20;;;;;;;4.22;71.25;100443.97;1663863;84;21087;-74
2022/12/17 21:28:57;;;;;;;4.37;2.33;;;;;;;4.21;71.19;100458.22;1692547;82;21064;-73
2022/12/17 21:31:30;;;;;;;3.90;2.30;;;;;;;4.14;71.14;100461.92;1692511;82;21072;-75
2022/12/17 21:33:59;;;;;;;4.55;2.72;;;;;;;4.12;71.16;100474.56;1697610;82;21211;-71
2022/12/17 21:36:26;;;;;;;4.67;2.80;;;;;;;4.08;71.16;100466.75;1686176;82;21045;-70
2022/12/17 21:38:53;;;;;;;4.55;2.72;;;;;;;4.11;71.14;100475.05;1701350;82;21063;-71
2022/12/17 21:41:22;;;;;;;5.20;3.30;;;;;;;4.13;71.00;100492.03;1636960;86;21112;-74
2022/12/17 21:43:55;;;;;;;4.55;2.80;;;;;;;4.08;70.94;100478.64;1657165;84;21058;-74
2022/12/17 21:46:22;;;;;;;5.65;2.90;;;;;;;4.05;70.81;100484.36;1662120;84;21607;-73
2022/12/17 21:48:49;;;;;;;5.03;3.08;;;;;;;4.05;70.82;100489.64;1660352;84;21402;-74
2022/12/17 21:51:17;;;;;;;4.33;3.25;;;;;;;3.99;70.69;100492.14;1690233;81;21093;-73
2022/12/17 21:53:44;;;;;;;4.67;3.20;;;;;;;4.02;70.71;100494.87;1647310;85;21096;-74
2022/12/17 21:56:13;;;;;;;4.62;3.20;;;;;;;4.02;70.84;100503.31;1697850;81;21050;-71
2022/12/17 21:58:40;;;;;;;5.70;3.87;;;;;;;4.05;70.87;100515.59;1680095;84;21101;-72
2022/12/17 22:01:10;;;;;;;6.20;4.15;;;;;;;4.00;70.48;100516.22;1698367;81;21165;-74
2022/12/17 22:03:38;;;;;;;5.92;3.90;;;;;;;3.96;70.23;100510.26;1682166;84;21143;-74
2022/12/17 22:06:09;;;;;;;6.70;4.42;;;;;;;3.96;70.00;100517.67;1711052;81;21113;-73
2022/12/17 22:08:36;;;;;;;6.72;4.33;;;;;;;3.97;69.80;100527.72;1711158;82;21073;-71
2022/12/17 22:11:08;;;;;;;5.75;3.87;;;;;;;3.95;69.68;100531.92;1710437;82;21876;-74
2022/12/17 22:16:24;;;;;;;6.67;4.47;;;;;;;3.93;69.67;100550.33;1686148;82;21535;-73
2022/12/17 22:18:55;;;;;;;6.67;4.70;;;;;;;3.94;69.75;100556.70;1682490;82;21069;-74
2022/12/17 22:21:21;;;;;;;6.97;4.67;;;;;;;3.96;69.76;100566.56;1690086;84;21104;-74
2022/12/17 22:23:51;;;;;;;7.33;5.22;;;;;;;3.94;69.77;100572.56;1687847;81;21268;-72
2022/12/17 22:26:18;;;;;;;8.08;5.80;;;;;;;3.92;69.83;100581.23;1713226;81;20963;-73
2022/12/17 22:28:47;;;;;;;8.40;5.60;;;;;;;3.93;69.94;100593.41;1720419;82;20963;-73
2022/12/17 22:34:00;;;;;;;7.33;5.35;;;;;;;3.93;70.12;100601.34;1673551;85;21096;-72
2022/12/17 22:36:30;;;;;;;9.13;6.30;;;;;;;3.95;70.25;100601.95;1680595;82;21286;-70
2022/12/17 22:39:06;;;;;;;10.68;7.28;;;;;;;3.92;70.18;100608.17;1679762;84;21567;-71
2022/12/17 22:44:18;;;;;;;9.75;7.15;;;;;;;3.67;69.65;100621.28;1697697;84;21093;-73
2022/12/17 22:46:44;;;;;;;10.30;7.60;;;;;;;3.65;69.49;100629.91;1687075;84;20959;-73
2022/12/17 22:49:11;;;;;;;10.55;7.60;;;;;;;3.60;69.54;100624.47;1686608;84;21215;-72
2022/12/17 22:51:39;;;;;;;11.20;8.00;;;;;;;3.60;69.56;100625.79;1674389;84;21030;-72
2022/12/17 22:54:06;;;;;;;12.18;8.03;;;;;;;3.59;69.57;100635.55;1672435;84;21100;-74
2022/12/17 22:56:35;;;;;;;10.95;8.00;;;;;;;3.61;69.58;100632.16;1730846;82;21085;-74
2022/12/17 22:59:01;;;;;;;10.43;7.62;;;;;;;3.60;69.49;100632.39;1733459;82;21058;-72
2022/12/17 23:01:28;;;;;;;12.65;8.88;;;;;;;3.56;69.07;100637.80;1695189;82;21242;-72
2022/12/17 23:03:56;;;;;;;14.47;9.88;;;;;;;3.48;68.85;100639.63;1703352;82;21434;-72
2022/12/17 23:06:24;;;;;;;15.72;9.80;;;;;;;3.40;68.68;100645.66;1688071;82;21022;-73
2022/12/17 23:08:56;;;;;;;14.87;9.18;;;;;;;3.35;68.79;100659.45;1696455;82;21001;-72
2022/12/17 23:11:27;;;;;;;14.85;9.98;;;;;;;3.26;68.72;100652.29;1701711;84;21056;-71
2022/12/17 23:13:57;;;;;;;14.07;9.35;;;;;;;3.22;68.89;100647.09;1730164;82;21132;-73
2022/12/17 23:16:25;;;;;;;17.15;10.08;;;;;;;3.22;68.86;100655.02;1667030;85;20974;-73
2022/12/17 23:18:53;;;;;;;14.30;9.40;;;;;;;3.12;68.59;100669.14;1674321;84;21073;-70
2022/12/17 23:21:23;;;;;;;16.15;10.13;;;;;;;3.23;68.51;100693.61;1691394;83;21057;-73
2022/12/17 23:23:52;;;;;;;18.95;11.65;;;;;;;3.15;68.51;100667.93;1682857;85;21088;-73
2022/12/17 23:26:23;;;;;;;17.48;10.75;;;;;;;3.10;68.55;100663.28;1682908;85;21270;-73
2022/12/17 23:28:57;;;;;;;17.40;11.15;;;;;;;3.10;68.48;100683.58;1682577;85;21043;-73
2022/12/17 23:31:26;;;;;;;15.93;10.05;;;;;;;3.11;68.38;100689.96;1682777;83;21134;-72
2022/12/17 23:33:53;;;;;;;17.60;12.05;;;;;;;3.11;68.23;100698.39;1675515;84;21511;-72
2022/12/17 23:36:22;;;;;;;16.23;11.75;;;;;;;3.08;68.25;100715.44;1658621;84;21582;-73
2022/12/17 23:38:49;;;;;;;18.57;12.65;;;;;;;3.04;68.26;100716.36;1694135;84;21122;-72
2022/12/17 23:41:19;;;;;;;17.42;11.20;;;;;;;3.03;68.29;100712.10;1681973;82;21019;-72
2022/12/17 23:43:46;;;;;;;17.65;11.05;;;;;;;3.05;68.37;100714.01;1690530;82;21059;-71
2022/12/17 23:46:13;;;;;;;20.92;13.08;;;;;;;3.11;68.03;100724.27;1673996;83;21125;-73
2022/12/17 23:48:41;;;;;;;18.40;12.13;;;;;;;3.03;68.04;100723.17;1698120;82;21114;-73
2022/12/17 23:51:08;;;;;;;19.27;12.45;;;;;;;2.96;68.11;100721.02;1698493;82;21143;-72
2022/12/17 23:53:36;;;;;;;21.50;12.50;;;;;;;2.92;68.08;100733.80;1681532;81;21149;-74
2022/12/17 23:56:15;;;;;;;20.27;12.30;;;;;;;2.86;68.06;100733.28;1693118;84;21120;-74
2022/12/17 23:58:44;;;;;;;19.52;12.23;;;;;;;2.78;68.01;100749.31;1708440;82;21121;-73
